Time;durP1;ratioP1;P1;durP2;ratioP2;P2;SDS_P1;SDS_P2;PMS_P1;PMS_P2;Temp;Humidity;BMP_temperature;BMP_pressure;BME280_temperature;BME280_humidity;BME280_pressure;Samples;Min_cycle;Max_cycle;Signal;HPM_P1;HPM_P2
2023/03/12 00:01:17;;;;;;;1.85;1.58;;;14.80;51.00;;;;;;5052674;28;20198;-55
2023/03/12 00:03:42;;;;;;;1.85;1.65;;;14.80;51.00;;;;;;5052385;28;20178;-54
2023/03/12 00:06:08;;;;;;;2.15;1.65;;;14.80;51.00;;;;;;5051233;28;20179;-56
2023/03/12 00:08:33;;;;;;;2.53;2.05;;;14.80;51.00;;;;;;5052532;28;20181;-51
2023/03/12 00:10:59;;;;;;;1.60;1.50;;;14.80;51.00;;;;;;5052482;28;20187;-52
2023/03/12 00:13:24;;;;;;;1.95;1.85;;;14.80;51.00;;;;;;5051671;28;20537;-55
2023/03/12 00:15:50;;;;;;;3.15;1.95;;;14.70;51.00;;;;;;5052488;28;20628;-54
2023/03/12 00:18:15;;;;;;;2.17;1.80;;;14.70;51.00;;;;;;5052049;28;20229;-53
2023/03/12 00:20:41;;;;;;;1.75;1.65;;;14.70;50.90;;;;;;5051700;28;20218;-54
2023/03/12 00:23:06;;;;;;;1.70;1.60;;;14.70;51.00;;;;;;5052151;28;20656;-55
2023/03/12 00:25:32;;;;;;;1.80;1.70;;;14.70;50.90;;;;;;5052641;28;20643;-50
2023/03/12 00:27:57;;;;;;;1.65;1.55;;;14.70;50.90;;;;;;5051660;28;20210;-54
2023/03/12 00:30:23;;;;;;;1.58;1.48;;;14.70;50.90;;;;;;5052704;28;20170;-53
2023/03/12 00:32:48;;;;;;;2.53;1.73;;;14.70;51.00;;;;;;5052578;28;20171;-54
2023/03/12 00:35:14;;;;;;;2.28;2.00;;;14.70;50.90;;;;;;5051904;28;20191;-51
2023/03/12 00:37:39;;;;;;;1.65;1.55;;;14.60;50.90;;;;;;5052592;28;20699;-52
2023/03/12 00:40:08;;;;;;;2.75;1.85;;;14.70;50.90;;;;;;5051476;28;20686;-54
2023/03/12 00:42:33;;;;;;;2.00;1.63;;;14.60;50.90;;;;;;5052613;28;20525;-53
2023/03/12 00:44:59;;;;;;;1.80;1.70;;;14.60;50.90;;;;;;5052286;28;20182;-53
2023/03/12 00:47:24;;;;;;;2.08;1.90;;;14.60;50.90;;;;;;5051938;28;20179;-50
2023/03/12 00:49:50;;;;;;;2.20;1.67;;;14.60;50.90;;;;;;5052191;28;20194;-52
2023/03/12 00:52:15;;;;;;;2.00;1.55;;;14.60;50.90;;;;;;5052385;28;20171;-53
2023/03/12 00:54:41;;;;;;;1.70;1.60;;;14.60;50.90;;;;;;5051886;28;20190;-55
2023/03/12 00:57:06;;;;;;;2.08;1.70;;;14.60;50.90;;;;;;5052207;28;20177;-55
2023/03/12 00:59:32;;;;;;;2.53;1.75;;;14.60;50.90;;;;;;5052257;28;20206;-51
2023/03/12 01:01:57;;;;;;;2.38;1.77;;;14.60;50.90;;;;;;5051255;28;20178;-54
2023/03/12 01:04:23;;;;;;;1.65;1.55;;;14.50;50.90;;;;;;5052237;28;20171;-55
2023/03/12 01:06:48;;;;;;;1.90;1.80;;;14.50;50.90;;;;;;5051912;28;20168;-51
2023/03/12 01:09:14;;;;;;;1.90;1.80;;;14.50;50.90;;;;;;5051404;28;20190;-52
2023/03/12 01:11:39;;;;;;;2.58;1.90;;;14.50;50.80;;;;;;5052227;28;20205;-54
2023/03/12 01:14:06;;;;;;;2.22;2.05;;;14.50;50.80;;;;;;5052211;28;20245;-54
2023/03/12 01:16:32;;;;;;;1.90;1.80;;;14.50;50.90;;;;;;5051640;28;20274;-54
2023/03/12 01:18:58;;;;;;;2.00;1.90;;;14.50;50.90;;;;;;5054617;28;20318;-53
2023/03/12 01:21:23;;;;;;;1.60;1.50;;;14.50;50.90;;;;;;5055925;28;20228;-55
2023/03/12 01:23:49;;;;;;;1.63;1.52;;;14.50;50.90;;;;;;5055169;28;20175;-55
2023/03/12 01:26:15;;;;;;;3.15;1.85;;;14.50;50.90;;;;;;5055857;28;20171;-55
2023/03/12 01:28:40;;;;;;;1.90;1.70;;;14.50;50.90;;;;;;5055855;28;20258;-55
2023/03/12 01:31:10;;;;;;;1.70;1.60;;;14.50;50.90;;;;;;5054869;28;20214;-55
2023/03/12 01:33:36;;;;;;;2.00;1.80;;;14.50;50.90;;;;;;5055621;28;20175;-54
2023/03/12 01:36:01;;;;;;;1.80;1.67;;;14.40;50.80;;;;;;5055570;28;20210;-55
2023/03/12 01:38:27;;;;;;;2.38;2.15;;;14.40;50.90;;;;;;5055070;28;20179;-54
2023/03/12 01:40:52;;;;;;;2.10;1.90;;;14.40;50.90;;;;;;5055377;28;20563;-56
2023/03/12 01:43:21;;;;;;;2.00;1.90;;;14.40;50.90;;;;;;5055534;28;20196;-56
2023/03/12 01:46:29;;;;;;;2.33;2.13;;;14.40;50.90;;;;;;5054806;28;20606;-55
2023/03/12 01:49:39;;;;;;;1.83;1.73;;;14.40;50.90;;;;;;5049333;28;20187;-54
2023/03/12 01:52:15;;;;;;;2.30;1.95;;;14.40;50.90;;;;;;5053131;28;20274;-51
2023/03/12 01:54:49;;;;;;;3.22;2.00;;;14.40;50.90;;;;;;5054057;28;20647;-55
2023/03/12 01:57:17;;;;;;;2.65;2.45;;;14.40;50.90;;;;;;5054412;28;20543;-55
2023/03/12 01:59:48;;;;;;;2.10;1.90;;;14.40;50.90;;;;;;5053081;28;20579;-56
2023/03/12 02:02:14;;;;;;;1.60;1.50;;;14.40;50.90;;;;;;5054025;28;20171;-54
2023/03/12 02:04:39;;;;;;;2.38;2.10;;;14.40;50.90;;;;;;5053328;28;20304;-53
2023/03/12 02:07:07;;;;;;;1.85;1.75;;;14.40;50.90;;;;;;5053776;28;20183;-54
2023/03/12 02:09:36;;;;;;;2.17;2.00;;;14.30;50.90;;;;;;5055233;28;20179;-56
2023/03/12 02:12:01;;;;;;;1.98;1.88;;;14.30;50.90;;;;;;5053031;28;20180;-55
2023/03/12 02:14:27;;;;;;;2.03;1.92;;;14.30;50.90;;;;;;5055071;28;20191;-54
2023/03/12 02:16:53;;;;;;;2.05;1.85;;;14.30;50.90;;;;;;5054703;28;20545;-54
2023/03/12 02:19:40;;;;;;;2.33;2.13;;;14.30;50.90;;;;;;5054008;28;20227;-56
2023/03/12 02:22:05;;;;;;;2.08;1.92;;;14.30;50.90;;;;;;5053515;28;20214;-55
2023/03/12 02:24:45;;;;;;;2.00;1.90;;;14.30;50.90;;;;;;5053598;28;20203;-52
2023/03/12 02:27:10;;;;;;;2.08;1.98;;;14.30;50.90;;;;;;5052533;28;20190;-55
2023/03/12 02:29:36;;;;;;;1.98;1.88;;;14.30;50.90;;;;;;5052947;28;20163;-56
2023/03/12 02:32:03;;;;;;;2.33;2.22;;;14.30;50.90;;;;;;5036205;28;20187;-54
2023/03/12 02:34:28;;;;;;;2.40;2.20;;;14.20;50.80;;;;;;5053784;28;20269;-55
2023/03/12 02:36:54;;;;;;;2.35;2.15;;;14.30;50.90;;;;;;5054081;28;20255;-56
2023/03/12 02:39:19;;;;;;;2.50;2.30;;;14.20;50.90;;;;;;5054272;28;20213;-55
2023/03/12 02:41:53;;;;;;;2.33;2.13;;;14.20;50.90;;;;;;5053304;28;20171;-53
2023/03/12 02:44:20;;;;;;;2.13;2.00;;;14.30;50.90;;;;;;5037401;28;20186;-56
2023/03/12 02:46:48;;;;;;;3.20;2.30;;;14.20;50.80;;;;;;5053087;28;20175;-56
2023/03/12 02:49:14;;;;;;;2.47;2.28;;;14.20;50.90;;;;;;5054258;28;20179;-55
2023/03/12 02:51:40;;;;;;;1.88;1.77;;;14.20;51.50;;;;;;5053935;28;20524;-55
2023/03/12 02:54:06;;;;;;;3.55;2.30;;;14.20;50.90;;;;;;5053070;28;20167;-54
2023/03/12 02:56:31;;;;;;;2.45;2.25;;;14.20;50.90;;;;;;5054163;28;20190;-55
2023/03/12 02:58:57;;;;;;;2.13;2.03;;;14.20;50.90;;;;;;5053447;28;20171;-55
2023/03/12 03:01:23;;;;;;;2.55;2.10;;;14.20;51.00;;;;;;5052974;28;20186;-56
2023/03/12 03:03:48;;;;;;;2.63;2.42;;;14.20;51.00;;;;;;5053421;28;20179;-51
2023/03/12 03:06:14;;;;;;;2.50;2.30;;;14.20;50.90;;;;;;5053808;28;20179;-55
2023/03/12 03:08:39;;;;;;;2.35;2.13;;;14.20;50.80;;;;;;5052924;28;20178;-53
2023/03/12 03:11:05;;;;;;;2.08;1.98;;;14.30;50.80;;;;;;5053350;28;20175;-50
2023/03/12 03:13:31;;;;;;;2.30;2.20;;;14.30;50.70;;;;;;5053547;28;20198;-53
2023/03/12 03:15:58;;;;;;;2.50;2.30;;;14.40;50.70;;;;;;5052313;28;20577;-54
2023/03/12 03:18:24;;;;;;;2.55;2.35;;;14.30;50.70;;;;;;5053494;28;20288;-54
2023/03/12 03:21:01;;;;;;;2.13;1.92;;;14.30;50.70;;;;;;5053225;28;20733;-56
2023/03/12 03:23:26;;;;;;;2.38;2.22;;;14.30;50.70;;;;;;5052818;28;20204;-50
2023/03/12 03:25:52;;;;;;;2.08;1.98;;;14.30;50.70;;;;;;5053106;28;20205;-52
2023/03/12 03:28:19;;;;;;;2.47;2.28;;;14.30;50.70;;;;;;5053187;28;20178;-54
2023/03/12 03:30:44;;;;;;;2.33;2.13;;;14.30;50.70;;;;;;5052202;28;20537;-55
2023/03/12 03:33:10;;;;;;;2.50;2.08;;;14.20;50.80;;;;;;5053322;28;20174;-51
2023/03/12 03:35:35;;;;;;;2.38;2.17;;;14.30;50.80;;;;;;5053236;28;20290;-52
2023/03/12 03:38:01;;;;;;;2.25;2.05;;;14.30;50.80;;;;;;5052102;28;20179;-53
2023/03/12 03:40:27;;;;;;;2.55;2.35;;;14.30;50.80;;;;;;5052187;28;20210;-53
2023/03/12 03:42:52;;;;;;;1.92;1.83;;;14.30;50.70;;;;;;5052756;28;20177;-54
2023/03/12 03:45:18;;;;;;;2.42;2.22;;;14.30;50.70;;;;;;5052502;28;20266;-56
2023/03/12 03:47:44;;;;;;;2.55;2.25;;;14.30;50.60;;;;;;5052689;28;20642;-55
2023/03/12 03:50:10;;;;;;;2.13;2.03;;;14.40;51.30;;;;;;5052357;28;20187;-51
2023/03/12 03:52:35;;;;;;;2.38;2.17;;;14.30;50.60;;;;;;5051653;28;20602;-53
2023/03/12 03:55:01;;;;;;;2.28;2.08;;;14.30;50.70;;;;;;5052479;28;20277;-54
2023/03/12 03:57:27;;;;;;;2.47;2.28;;;14.30;50.70;;;;;;5052014;28;20261;-55
2023/03/12 03:59:52;;;;;;;2.00;1.90;;;14.30;50.70;;;;;;5052540;28;20309;-56
2023/03/12 04:02:18;;;;;;;2.00;1.90;;;14.30;50.80;;;;;;5052750;28;20179;-55
2023/03/12 04:04:43;;;;;;;2.13;2.03;;;14.20;50.80;;;;;;5051786;28;20180;-56
2023/03/12 04:07:09;;;;;;;2.42;2.22;;;14.30;50.80;;;;;;5052572;28;20205;-55
2023/03/12 04:09:35;;;;;;;2.35;2.15;;;14.30;50.70;;;;;;5052598;28;20213;-53
2023/03/12 04:12:00;;;;;;;2.53;2.00;;;14.30;50.70;;;;;;5051567;28;20186;-53
2023/03/12 04:14:26;;;;;;;2.30;2.10;;;14.40;50.60;;;;;;5052769;28;20250;-53
2023/03/12 04:16:51;;;;;;;2.15;2.00;;;14.40;50.50;;;;;;5051977;28;20642;-54
2023/03/12 04:19:17;;;;;;;1.95;1.80;;;14.50;50.50;;;;;;5051228;28;20598;-55
2023/03/12 04:21:42;;;;;;;2.30;2.10;;;14.50;50.40;;;;;;5052043;28;20578;-54
2023/03/12 04:24:11;;;;;;;2.85;2.55;;;14.50;50.40;;;;;;5052310;28;20182;-50
2023/03/12 04:26:36;;;;;;;2.25;2.15;;;14.50;50.40;;;;;;5034070;28;20206;-51
2023/03/12 04:29:02;;;;;;;2.58;2.20;;;14.40;50.40;;;;;;5051967;28;20202;-53
2023/03/12 04:31:27;;;;;;;2.42;2.22;;;14.40;50.60;;;;;;5052185;28;20179;-54
2023/03/12 04:33:53;;;;;;;2.33;2.10;;;14.40;50.60;;;;;;5051179;28;20179;-54
2023/03/12 04:36:18;;;;;;;2.03;1.85;;;14.40;50.60;;;;;;5052221;28;20175;-51
2023/03/12 04:38:44;;;;;;;2.15;2.05;;;14.40;50.60;;;;;;5052202;28;20171;-54
2023/03/12 04:41:11;;;;;;;2.60;2.40;;;14.40;50.60;;;;;;5051447;28;20264;-55
2023/03/12 04:43:36;;;;;;;2.88;2.38;;;14.40;50.50;;;;;;5052335;28;20167;-54
2023/03/12 04:46:02;;;;;;;2.10;2.00;;;14.50;50.50;;;;;;5052120;28;20509;-55
2023/03/12 04:48:28;;;;;;;2.13;1.92;;;14.50;50.40;;;;;;5051568;28;20183;-54
2023/03/12 04:50:53;;;;;;;2.50;2.20;;;14.50;50.40;;;;;;5051864;28;20179;-54
2023/03/12 04:53:19;;;;;;;2.17;1.92;;;14.50;50.30;;;;;;5055063;28;20176;-54
2023/03/12 04:55:44;;;;;;;1.90;1.80;;;14.50;50.30;;;;;;5055780;28;20207;-55
2023/03/12 04:58:10;;;;;;;1.70;1.60;;;14.50;50.30;;;;;;5056374;28;20200;-55
2023/03/12 05:00:35;;;;;;;2.17;1.83;;;14.50;50.80;;;;;;5055359;28;20318;-55
2023/03/12 05:03:01;;;;;;;1.80;1.70;;;14.40;50.40;;;;;;5055773;28;20310;-54
2023/03/12 05:05:27;;;;;;;2.03;1.83;;;14.40;50.40;;;;;;5056122;28;20320;-56
2023/03/12 05:07:52;;;;;;;2.33;1.90;;;14.40;50.40;;;;;;5054900;28;20191;-55
2023/03/12 05:10:18;;;;;;;2.58;2.38;;;14.40;50.40;;;;;;5055977;28;20249;-55
2023/03/12 05:12:43;;;;;;;2.28;2.08;;;14.50;50.40;;;;;;5055541;28;20728;-56
2023/03/12 05:15:09;;;;;;;2.00;1.80;;;14.50;50.40;;;;;;5055291;28;20175;-55
2023/03/12 05:17:34;;;;;;;2.20;2.08;;;14.50;50.30;;;;;;5055591;28;20649;-54
2023/03/12 05:20:00;;;;;;;1.73;1.63;;;14.50;50.30;;;;;;5055339;28;20242;-54
2023/03/12 05:22:25;;;;;;;1.73;1.63;;;14.50;50.30;;;;;;5054938;28;20202;-56
2023/03/12 05:24:51;;;;;;;1.80;1.70;;;14.50;50.30;;;;;;5055312;28;20179;-55
2023/03/12 05:27:17;;;;;;;2.00;1.90;;;14.50;50.30;;;;;;5055557;28;20536;-55
2023/03/12 05:29:42;;;;;;;2.20;2.00;;;14.50;50.40;;;;;;5054612;28;20665;-53
2023/03/12 05:32:08;;;;;;;2.20;2.00;;;14.40;50.40;;;;;;5055734;28;20622;-55
2023/03/12 05:34:33;;;;;;;2.20;2.00;;;14.40;50.40;;;;;;5055543;28;20178;-55
2023/03/12 05:36:59;;;;;;;2.10;1.90;;;14.40;50.40;;;;;;5054457;28;20254;-56
2023/03/12 05:39:25;;;;;;;2.60;1.75;;;14.40;50.40;;;;;;5055240;28;20203;-55
2023/03/12 05:41:52;;;;;;;1.70;1.60;;;14.50;50.40;;;;;;5054851;28;20182;-55
2023/03/12 05:44:18;;;;;;;1.85;1.70;;;14.50;50.30;;;;;;5054759;28;20201;-55
2023/03/12 05:46:43;;;;;;;2.13;2.03;;;14.50;50.90;;;;;;5055022;28;20622;-55
2023/03/12 05:49:09;;;;;;;2.10;2.00;;;14.50;50.30;;;;;;5055275;28;20309;-53
2023/03/12 05:51:35;;;;;;;2.72;1.70;;;14.50;50.20;;;;;;5054378;28;20167;-54
2023/03/12 05:54:00;;;;;;;2.08;1.98;;;14.50;50.20;;;;;;5054655;28;20212;-52
2023/03/12 05:56:26;;;;;;;2.22;1.90;;;14.50;50.20;;;;;;5055170;28;20172;-55
2023/03/12 05:58:51;;;;;;;1.90;1.80;;;14.50;50.30;;;;;;5054165;28;20642;-56
2023/03/12 06:01:22;;;;;;;2.58;1.83;;;14.50;50.30;;;;;;5055073;28;20256;-55
2023/03/12 06:03:48;;;;;;;1.83;1.67;;;14.50;50.40;;;;;;5053159;28;20183;-51
2023/03/12 06:06:13;;;;;;;1.90;1.80;;;14.60;50.40;;;;;;5054880;28;20190;-56
2023/03/12 06:08:39;;;;;;;1.70;1.60;;;14.60;50.20;;;;;;5054597;28;20175;-55
2023/03/12 06:11:04;;;;;;;2.00;1.80;;;14.80;50.10;;;;;;5053715;28;20181;-51
2023/03/12 06:13:30;;;;;;;2.75;2.03;;;14.90;49.90;;;;;;5054743;28;20176;-54
2023/03/12 06:16:04;;;;;;;1.40;1.30;;;15.10;49.70;;;;;;5054571;28;20201;-55
2023/03/12 06:18:31;;;;;;;1.70;1.60;;;15.30;49.50;;;;;;5053907;28;20619;-55
2023/03/12 06:21:13;;;;;;;2.13;1.92;;;15.50;49.20;;;;;;5054199;28;20733;-53
2023/03/12 06:23:39;;;;;;;1.75;1.65;;;15.70;48.90;;;;;;5054757;28;20229;-56
2023/03/12 06:26:05;;;;;;;2.03;1.63;;;16.00;48.50;;;;;;5053506;28;20187;-54
2023/03/12 06:28:30;;;;;;;2.65;1.58;;;16.10;48.20;;;;;;5054471;28;20175;-55
2023/03/12 06:30:56;;;;;;;1.83;1.73;;;16.40;47.90;;;;;;5054183;28;20180;-55
2023/03/12 06:33:21;;;;;;;2.15;1.73;;;16.40;47.70;;;;;;5053663;28;20201;-53
2023/03/12 06:35:47;;;;;;;1.77;1.67;;;16.50;47.60;;;;;;5054045;28;20182;-55
2023/03/12 06:38:13;;;;;;;1.60;1.50;;;16.60;47.30;;;;;;5054485;28;20175;-54
2023/03/12 06:40:38;;;;;;;1.88;1.60;;;16.60;47.30;;;;;;5053282;28;20232;-54
2023/03/12 06:43:04;;;;;;;1.70;1.60;;;16.70;47.30;;;;;;5053957;28;20210;-53
2023/03/12 06:45:29;;;;;;;1.95;1.50;;;16.70;47.30;;;;;;5054169;28;20211;-54
2023/03/12 06:47:55;;;;;;;2.03;1.33;;;16.70;47.30;;;;;;5053057;28;20178;-54
2023/03/12 06:50:20;;;;;;;1.48;1.38;;;16.70;47.30;;;;;;5054206;28;20175;-49
2023/03/12 06:52:46;;;;;;;1.40;1.30;;;16.70;47.30;;;;;;5053596;28;20613;-51
2023/03/12 06:55:11;;;;;;;1.63;1.52;;;16.60;47.30;;;;;;5053229;28;20194;-52
2023/03/12 06:57:37;;;;;;;2.25;1.65;;;16.60;47.50;;;;;;5053995;28;20270;-55
2023/03/12 07:00:04;;;;;;;1.90;1.80;;;16.60;47.60;;;;;;5052870;28;20677;-56
2023/03/12 07:02:29;;;;;;;1.60;1.50;;;16.70;47.70;;;;;;5053650;28;20183;-55
2023/03/12 07:04:55;;;;;;;1.88;1.35;;;16.60;47.70;;;;;;5053368;28;20594;-50
2023/03/12 07:07:20;;;;;;;1.45;1.35;;;16.70;47.70;;;;;;5052859;28;20190;-52
2023/03/12 07:09:46;;;;;;;1.58;1.48;;;16.80;47.60;;;;;;5053323;28;20258;-52
2023/03/12 07:12:11;;;;;;;1.50;1.40;;;17.10;47.30;;;;;;5053794;28;20182;-52
2023/03/12 07:14:37;;;;;;;1.50;1.40;;;17.30;46.90;;;;;;5052972;28;20174;-55
2023/03/12 07:17:03;;;;;;;2.53;1.60;;;17.40;46.60;;;;;;5053334;28;20167;-55
2023/03/12 07:19:31;;;;;;;1.50;1.40;;;17.50;46.50;;;;;;5052065;28;20321;-55
2023/03/12 07:21:57;;;;;;;1.50;1.40;;;17.50;46.50;;;;;;5052565;28;20548;-55
2023/03/12 07:24:22;;;;;;;1.30;1.20;;;17.60;46.50;;;;;;5053559;28;20171;-56
2023/03/12 07:26:48;;;;;;;1.67;1.52;;;17.60;46.30;;;;;;5053070;28;20186;-56
2023/03/12 07:29:13;;;;;;;1.65;1.55;;;17.60;46.50;;;;;;5052551;28;20308;-53
2023/03/12 07:31:39;;;;;;;1.95;1.40;;;17.60;46.50;;;;;;5053308;28;20171;-53
2023/03/12 07:34:05;;;;;;;1.60;1.25;;;17.60;46.50;;;;;;5052794;28;20183;-54
2023/03/12 07:36:31;;;;;;;1.23;1.13;;;17.60;46.60;;;;;;5052396;28;20171;-55
2023/03/12 07:38:56;;;;;;;1.60;1.50;;;17.50;46.70;;;;;;5052917;28;20171;-53
2023/03/12 07:41:22;;;;;;;2.15;1.50;;;17.50;46.80;;;;;;5053089;28;20193;-56
2023/03/12 07:43:47;;;;;;;1.27;1.17;;;17.40;46.80;;;;;;5051922;28;20618;-55
2023/03/12 07:46:13;;;;;;;2.08;1.40;;;17.40;46.80;;;;;;5052894;28;20217;-54
2023/03/12 07:48:38;;;;;;;1.50;1.25;;;17.40;46.90;;;;;;5052845;28;20292;-55
2023/03/12 07:51:05;;;;;;;1.20;1.15;;;17.40;47.00;;;;;;5051797;28;20187;-50
2023/03/12 07:53:30;;;;;;;1.77;1.13;;;17.40;47.00;;;;;;5053165;28;20183;-52
2023/03/12 07:55:56;;;;;;;1.33;1.23;;;17.30;47.20;;;;;;5052581;28;20653;-53
2023/03/12 07:58:21;;;;;;;1.52;1.20;;;17.30;47.30;;;;;;5051960;28;20656;-54
2023/03/12 08:00:47;;;;;;;1.83;1.40;;;17.30;47.50;;;;;;5052396;28;20218;-55
2023/03/12 08:03:12;;;;;;;1.55;1.33;;;17.30;47.40;;;;;;5052012;28;20167;-54
2023/03/12 08:05:38;;;;;;;1.48;1.38;;;17.30;47.50;;;;;;5052537;28;20206;-53
2023/03/12 08:08:04;;;;;;;1.40;1.30;;;17.20;47.60;;;;;;5052135;28;20225;-55
2023/03/12 08:10:29;;;;;;;2.17;1.38;;;17.20;48.20;;;;;;5052034;28;20179;-55
2023/03/12 08:12:55;;;;;;;1.67;1.50;;;17.30;47.50;;;;;;5052249;28;20167;-55
2023/03/12 08:15:20;;;;;;;1.60;1.23;;;17.30;47.50;;;;;;5052807;28;20183;-54
2023/03/12 08:17:46;;;;;;;1.30;1.13;;;17.30;47.40;;;;;;5051416;28;20175;-54
2023/03/12 08:20:11;;;;;;;1.58;1.48;;;17.30;47.50;;;;;;5052562;28;20640;-55
2023/03/12 08:22:37;;;;;;;1.73;1.60;;;17.20;47.50;;;;;;5052523;28;20281;-54
2023/03/12 08:25:03;;;;;;;1.30;1.20;;;17.10;47.70;;;;;;5051449;28;20332;-55
2023/03/12 08:27:29;;;;;;;1.35;1.10;;;17.00;47.90;;;;;;5052319;28;20175;-55
2023/03/12 08:29:54;;;;;;;1.98;1.58;;;17.00;48.00;;;;;;5052228;28;20181;-56
2023/03/12 08:32:20;;;;;;;1.30;1.10;;;17.00;48.10;;;;;;5051786;28;20171;-56
2023/03/12 08:34:46;;;;;;;1.30;1.20;;;17.00;48.10;;;;;;5052175;28;20261;-53
2023/03/12 08:37:11;;;;;;;1.20;1.10;;;17.00;48.10;;;;;;5052660;28;20190;-56
2023/03/12 08:39:36;;;;;;;1.13;1.02;;;17.10;48.10;;;;;;5051566;28;20202;-54
2023/03/12 08:42:02;;;;;;;1.35;1.02;;;17.00;48.00;;;;;;5052284;28;20233;-56
2023/03/12 08:44:28;;;;;;;1.35;1.25;;;17.10;48.00;;;;;;5052241;28;20187;-56
2023/03/12 08:46:53;;;;;;;1.98;1.30;;;17.10;48.00;;;;;;5051279;28;20803;-69
2023/03/12 08:49:19;;;;;;;3.13;1.10;;;17.10;48.10;;;;;;5052281;28;20177;-64
2023/03/12 08:51:45;;;;;;;2.35;1.40;;;17.10;48.40;;;;;;5051691;28;20182;-65
2023/03/12 08:54:10;;;;;;;2.22;1.40;;;17.20;48.50;;;;;;5051346;28;20171;-64
2023/03/12 08:56:40;;;;;;;1.98;1.40;;;17.20;48.50;;;;;;5052358;28;20233;-66
2023/03/12 08:59:06;;;;;;;2.13;1.45;;;17.10;48.60;;;;;;5051708;28;20708;-65
2023/03/12 09:01:31;;;;;;;2.85;1.45;;;17.20;48.70;;;;;;5051466;28;20279;-65
2023/03/12 09:03:57;;;;;;;4.40;1.77;;;17.20;49.00;;;;;;5051787;28;20510;-65
2023/03/12 09:06:22;;;;;;;2.92;1.30;;;17.20;49.50;;;;;;5052254;28;20182;-64
2023/03/12 09:08:50;;;;;;;5.75;1.60;;;17.20;49.50;;;;;;5051012;28;20699;-64
2023/03/12 09:11:16;;;;;;;3.75;1.42;;;17.20;49.80;;;;;;5051787;28;20529;-65
2023/03/12 09:13:41;;;;;;;2.78;1.45;;;17.20;50.00;;;;;;5050955;28;20267;-63
2023/03/12 09:16:07;;;;;;;1.48;1.23;;;17.20;50.10;;;;;;5052034;28;20264;-62
2023/03/12 09:18:32;;;;;;;2.67;1.70;;;17.10;50.20;;;;;;5051622;28;20700;-63
2023/03/12 09:20:58;;;;;;;3.47;1.33;;;17.20;50.40;;;;;;5050732;28;20670;-64
2023/03/12 09:23:24;;;;;;;2.97;1.77;;;17.20;50.30;;;;;;5051866;28;20179;-62
2023/03/12 09:25:49;;;;;;;4.47;1.65;;;17.20;50.40;;;;;;5051793;28;20183;-64
2023/03/12 09:28:15;;;;;;;3.38;1.42;;;17.20;50.50;;;;;;5050951;28;20182;-65
2023/03/12 09:30:41;;;;;;;3.10;1.52;;;17.20;50.60;;;;;;5052060;28;20217;-66
2023/03/12 09:33:06;;;;;;;4.38;1.98;;;17.20;50.40;;;;;;5052089;28;20591;-66
2023/03/12 09:35:32;;;;;;;4.00;1.40;;;17.20;50.60;;;;;;5051502;28;20265;-66
2023/03/12 09:37:58;;;;;;;2.53;1.17;;;17.10;50.60;;;;;;5051781;28;20167;-65
2023/03/12 09:40:24;;;;;;;2.78;1.65;;;17.10;50.60;;;;;;5055257;28;20292;-66
2023/03/12 09:43:02;;;;;;;2.25;1.40;;;16.90;50.60;;;;;;5053278;28;20258;-66
2023/03/12 09:45:34;;;;;;;2.50;1.67;;;16.90;50.80;;;;;;5054276;28;20183;-64
2023/03/12 09:48:00;;;;;;;1.73;1.63;;;16.80;51.10;;;;;;5038407;28;20175;-64
2023/03/12 09:50:32;;;;;;;3.42;1.48;;;16.80;51.10;;;;;;5053672;28;20179;-64
2023/03/12 09:53:01;;;;;;;2.95;1.30;;;16.80;51.20;;;;;;5055110;28;20206;-64
2023/03/12 09:55:31;;;;;;;2.70;1.30;;;16.60;51.20;;;;;;5054182;28;20179;-65
2023/03/12 09:57:58;;;;;;;2.25;1.17;;;16.60;51.30;;;;;;5037234;28;20626;-66
2023/03/12 10:00:29;;;;;;;1.48;1.38;;;16.60;51.30;;;;;;5054996;28;20221;-66
2023/03/12 10:03:08;;;;;;;3.42;1.45;;;16.70;51.40;;;;;;5053064;28;20649;-66
2023/03/12 10:05:55;;;;;;;2.42;1.23;;;16.60;51.40;;;;;;5053887;28;20171;-65
2023/03/12 10:08:38;;;;;;;1.90;1.42;;;16.70;51.40;;;;;;5053812;28;20637;-65
2023/03/12 10:11:13;;;;;;;1.80;1.13;;;16.70;51.40;;;;;;5054261;28;20171;-64
2023/03/12 10:13:44;;;;;;;1.80;1.08;;;16.60;51.40;;;;;;5053730;28;20654;-64
2023/03/12 10:16:31;;;;;;;2.70;1.23;;;16.60;51.50;;;;;;5053698;28;20167;-65
2023/03/12 10:19:26;;;;;;;2.35;1.60;;;16.70;51.40;;;;;;5052432;28;20579;-65
2023/03/12 10:22:07;;;;;;;2.17;1.30;;;16.70;51.40;;;;;;5053472;28;20191;-64
2023/03/12 10:24:35;;;;;;;2.05;1.30;;;16.60;51.30;;;;;;5053054;28;20175;-65
2023/03/12 10:27:01;;;;;;;1.83;1.20;;;16.60;51.40;;;;;;5053313;28;20181;-65
2023/03/12 10:29:31;;;;;;;3.00;1.38;;;16.60;52.20;;;;;;5054902;28;20606;-66
2023/03/12 10:32:06;;;;;;;1.10;1.00;;;16.50;51.50;;;;;;5036123;28;20178;-66
2023/03/12 10:34:36;;;;;;;2.17;1.58;;;16.50;51.70;;;;;;5053368;28;20663;-67
2023/03/12 10:37:13;;;;;;;1.45;1.35;;;16.40;51.70;;;;;;5054171;28;20644;-66
2023/03/12 10:39:39;;;;;;;1.42;1.20;;;16.50;51.80;;;;;;5036137;28;20206;-66
2023/03/12 10:42:13;;;;;;;1.92;1.42;;;16.50;51.80;;;;;;5054088;28;20261;-65
2023/03/12 10:44:38;;;;;;;2.67;1.40;;;16.50;51.80;;;;;;5053283;28;20182;-65
2023/03/12 10:47:24;;;;;;;2.83;1.38;;;16.50;51.80;;;;;;5052282;28;20175;-65
2023/03/12 10:49:51;;;;;;;2.15;1.70;;;16.50;51.80;;;;;;5052700;28;20181;-65
2023/03/12 10:52:18;;;;;;;1.85;1.30;;;16.50;51.80;;;;;;5053432;28;20244;-65
2023/03/12 10:54:46;;;;;;;2.97;1.65;;;16.60;51.70;;;;;;5053830;28;20634;-66
2023/03/12 10:57:11;;;;;;;1.75;1.20;;;16.50;51.60;;;;;;5054255;28;20258;-66
2023/03/12 10:59:40;;;;;;;1.98;1.42;;;16.50;51.70;;;;;;5053324;28;20646;-67
2023/03/12 11:02:28;;;;;;;2.85;1.30;;;16.50;51.90;;;;;;5053545;28;20514;-66
2023/03/12 11:04:54;;;;;;;1.65;1.13;;;16.40;51.90;;;;;;5053945;28;20183;-66
2023/03/12 11:07:29;;;;;;;2.10;1.42;;;16.30;52.00;;;;;;5053463;28;20193;-66
2023/03/12 11:10:06;;;;;;;1.52;1.42;;;16.40;52.10;;;;;;5053770;28;20583;-65
2023/03/12 11:12:36;;;;;;;1.67;1.58;;;16.40;52.20;;;;;;5053896;28;20281;-65
2023/03/12 11:15:21;;;;;;;1.67;1.55;;;16.40;52.10;;;;;;5052779;28;20179;-64
2023/03/12 11:17:47;;;;;;;1.40;1.27;;;16.40;52.10;;;;;;5053079;28;20178;-65
2023/03/12 11:20:28;;;;;;;1.42;1.30;;;16.40;52.00;;;;;;5053012;28;20305;-65
2023/03/12 11:22:54;;;;;;;1.38;1.20;;;16.50;52.10;;;;;;5053377;28;20254;-64
2023/03/12 11:25:27;;;;;;;2.00;1.45;;;16.50;52.00;;;;;;5053500;28;20717;-65
2023/03/12 11:27:54;;;;;;;1.40;1.30;;;16.50;52.00;;;;;;5052502;28;20644;-65
2023/03/12 11:30:38;;;;;;;2.47;1.42;;;16.40;52.00;;;;;;5052492;28;20206;-66
2023/03/12 11:33:05;;;;;;;1.65;1.38;;;16.40;52.10;;;;;;5053193;28;20257;-66
2023/03/12 11:35:48;;;;;;;2.63;1.60;;;16.30;52.20;;;;;;5052706;28;20175;-66
2023/03/12 11:38:58;;;;;;;1.50;1.40;;;16.30;52.30;;;;;;5052576;28;20556;-65
2023/03/12 11:41:52;;;;;;;2.75;1.77;;;16.30;52.40;;;;;;5030507;28;20685;-65
2023/03/12 11:44:41;;;;;;;1.55;1.40;;;16.30;52.40;;;;;;5000653;28;20616;-65
2023/03/12 11:47:14;;;;;;;1.75;1.65;;;16.30;52.40;;;;;;5049950;28;20598;-64
2023/03/12 11:50:15;;;;;;;1.40;1.33;;;16.30;52.30;;;;;;5051393;28;20182;-65
2023/03/12 11:53:03;;;;;;;1.40;1.20;;;16.40;53.00;;;;;;5045929;28;20214;-65
2023/03/12 11:55:46;;;;;;;1.85;1.67;;;16.40;52.30;;;;;;5051414;28;20175;-65
2023/03/12 11:58:37;;;;;;;1.58;1.48;;;16.40;52.30;;;;;;5052022;28;20199;-66
2023/03/12 12:01:29;;;;;;;1.30;1.20;;;16.40;52.30;;;;;;5051744;28;20275;-65
2023/03/12 12:04:17;;;;;;;2.33;1.80;;;16.30;52.30;;;;;;5041273;28;20308;-65
2023/03/12 12:07:03;;;;;;;1.58;1.48;;;16.30;52.40;;;;;;5052939;28;20265;-65
2023/03/12 12:09:35;;;;;;;1.80;1.70;;;16.20;52.50;;;;;;5051396;28;20238;-65
2023/03/12 12:12:21;;;;;;;1.40;1.13;;;16.20;52.60;;;;;;5052570;28;20182;-64
2023/03/12 12:15:09;;;;;;;1.58;1.33;;;16.20;52.70;;;;;;5052024;28;20187;-64
2023/03/12 12:18:13;;;;;;;2.35;1.60;;;16.30;52.50;;;;;;5051769;28;20190;-64
2023/03/12 12:20:47;;;;;;;1.42;1.33;;;16.30;52.50;;;;;;5051488;28;20219;-65
2023/03/12 12:23:19;;;;;;;1.73;1.50;;;16.40;52.50;;;;;;5051650;28;20608;-65
2023/03/12 12:25:51;;;;;;;2.05;1.50;;;16.50;52.50;;;;;;5050206;28;20179;-65
2023/03/12 12:28:38;;;;;;;1.58;1.30;;;16.40;52.30;;;;;;5051631;28;20186;-65
2023/03/12 12:31:19;;;;;;;2.42;1.42;;;16.40;52.40;;;;;;5050696;28;20229;-65
2023/03/12 12:34:20;;;;;;;1.85;1.48;;;16.40;52.50;;;;;;5051098;28;20603;-66
2023/03/12 12:36:49;;;;;;;1.70;1.35;;;16.30;52.40;;;;;;5045169;28;20183;-66
2023/03/12 12:39:22;;;;;;;1.42;1.33;;;16.30;52.50;;;;;;5050582;28;20508;-65
2023/03/12 12:41:52;;;;;;;1.83;1.42;;;16.30;52.60;;;;;;5051176;28;20183;-66
2023/03/12 12:44:23;;;;;;;1.40;1.23;;;16.30;52.70;;;;;;5035017;28;20171;-65
2023/03/12 12:46:51;;;;;;;1.63;1.20;;;16.30;52.70;;;;;;5033937;28;20179;-65
2023/03/12 12:49:41;;;;;;;2.78;1.55;;;16.30;52.70;;;;;;5051239;28;20225;-64
2023/03/12 12:52:07;;;;;;;2.25;1.65;;;16.40;52.60;;;;;;5051824;28;20236;-65
2023/03/12 12:54:42;;;;;;;2.08;1.50;;;16.40;52.60;;;;;;5051231;28;20183;-65
2023/03/12 12:57:15;;;;;;;1.83;1.65;;;16.40;52.60;;;;;;5052315;28;20185;-65